createdAt,value
2019-03-04T00:01:56.378Z,74.89
2019-03-04T00:04:23.097Z,75.01
2019-03-04T00:06:49.877Z,74.18
2019-03-04T00:09:16.603Z,74.39
2019-03-04T00:11:43.374Z,73.66
2019-03-04T00:14:10.088Z,73.83
2019-03-04T00:16:36.825Z,72.67
2019-03-04T00:19:03.570Z,74.30
2019-03-04T00:21:30.306Z,73.92
2019-03-04T00:23:57.037Z,73.36
2019-03-04T00:26:23.762Z,73.33
2019-03-04T00:28:50.473Z,73.64
2019-03-04T00:31:17.245Z,74.21
2019-03-04T00:33:43.966Z,72.84
2019-03-04T00:36:10.682Z,73.68
2019-03-04T00:38:37.427Z,73.49
2019-03-04T00:41:04.158Z,73.18
2019-03-04T00:43:30.874Z,73.59
2019-03-04T00:45:57.613Z,71.46
2019-03-04T00:48:24.325Z,71.31
2019-03-04T00:50:51.057Z,72.94
2019-03-04T00:53:17.769Z,72.80
2019-03-04T00:55:44.518Z,72.42
2019-03-04T00:58:11.237Z,72.97
2019-03-04T01:00:37.986Z,73.99
2019-03-04T01:03:04.766Z,74.06
2019-03-04T01:05:31.512Z,74.84
2019-03-04T01:07:58.231Z,75.02
2019-03-04T01:10:25.029Z,76.10
2019-03-04T01:12:51.961Z,76.01
2019-03-04T01:15:18.697Z,75.77
2019-03-04T01:17:45.413Z,76.27
2019-03-04T01:20:13.273Z,76.08
2019-03-04T01:22:39.981Z,76.96
2019-03-04T01:25:08.377Z,77.22
2019-03-04T01:27:35.250Z,77.30
2019-03-04T01:30:02.005Z,75.33
2019-03-04T01:32:28.719Z,73.88
2019-03-04T01:34:55.455Z,73.29
2019-03-04T01:37:22.201Z,71.37
2019-03-04T01:39:48.918Z,71.52
2019-03-04T01:42:15.696Z,70.60
2019-03-04T01:44:43.147Z,69.71
2019-03-04T01:47:09.986Z,68.38
2019-03-04T01:49:36.703Z,67.86
2019-03-04T01:52:03.435Z,66.42
2019-03-04T01:54:30.231Z,65.32
2019-03-04T01:56:56.985Z,65.46
2019-03-04T01:59:23.686Z,65.78
2019-03-04T02:01:50.434Z,65.62
2019-03-04T02:04:17.156Z,64.70
2019-03-04T02:06:43.886Z,65.88
2019-03-04T02:09:10.802Z,65.29
2019-03-04T02:11:37.534Z,66.22
2019-03-04T02:14:04.250Z,66.86
2019-03-04T02:16:30.982Z,67.23
2019-03-04T02:18:57.702Z,67.26
2019-03-04T02:21:24.454Z,67.41
2019-03-04T02:23:51.181Z,68.20
2019-03-04T02:26:23.953Z,68.84
2019-03-04T02:28:50.685Z,67.42
2019-03-04T02:31:17.425Z,68.45
2019-03-04T02:33:44.137Z,69.39
2019-03-04T02:36:10.874Z,70.05
2019-03-04T02:38:37.591Z,70.48
2019-03-04T02:41:04.330Z,71.81
2019-03-04T02:43:31.046Z,71.11
2019-03-04T02:45:57.790Z,70.38
2019-03-04T02:48:24.517Z,69.67
2019-03-04T02:50:51.241Z,69.01
2019-03-04T02:53:17.951Z,68.78
2019-03-04T02:55:44.679Z,69.59
2019-03-04T02:58:11.414Z,68.98
2019-03-04T03:00:38.125Z,67.50
2019-03-04T03:03:04.868Z,68.45
2019-03-04T03:05:31.579Z,68.92
2019-03-04T03:07:58.386Z,68.56
2019-03-04T03:10:25.106Z,68.64
2019-03-04T03:12:51.828Z,68.25
2019-03-04T03:15:18.542Z,67.77
2019-03-04T03:17:45.276Z,67.90
2019-03-04T03:20:12.037Z,67.47
2019-03-04T03:22:38.935Z,68.73
2019-03-04T03:25:06.258Z,68.25
2019-03-04T03:27:32.991Z,68.30
2019-03-04T03:29:59.712Z,68.51
2019-03-04T03:32:26.462Z,67.74
2019-03-04T03:34:53.179Z,67.85
2019-03-04T03:37:19.906Z,67.46
2019-03-04T03:39:46.620Z,67.19
2019-03-04T03:42:13.344Z,67.45
2019-03-04T03:44:40.071Z,67.71
2019-03-04T03:47:06.800Z,67.64
2019-03-04T03:49:33.519Z,67.21
2019-03-04T03:52:02.019Z,67.59
2019-03-04T03:54:28.755Z,67.36
2019-03-04T03:56:55.505Z,66.12
2019-03-04T03:59:22.212Z,66.78
2019-03-04T04:01:48.951Z,66.57
2019-03-04T04:04:15.658Z,66.73
2019-03-04T04:06:42.463Z,67.62
2019-03-04T04:09:09.187Z,66.24
2019-03-04T04:11:35.895Z,68.23
2019-03-04T04:14:02.722Z,69.02
2019-03-04T04:16:29.445Z,67.26
2019-03-04T04:18:56.211Z,66.37
2019-03-04T04:21:22.922Z,67.21
2019-03-04T04:23:49.654Z,66.14
2019-03-04T04:26:20.734Z,66.24
2019-03-04T04:28:48.693Z,66.15
2019-03-04T04:31:15.407Z,64.42
2019-03-04T04:33:42.158Z,67.42
2019-03-04T04:36:08.878Z,67.29
2019-03-04T04:38:35.610Z,67.13
2019-03-04T04:41:02.330Z,68.29
2019-03-04T04:43:29.065Z,68.43
2019-03-04T04:45:55.774Z,68.53
2019-03-04T04:48:22.515Z,67.27
2019-03-04T04:50:49.233Z,65.64
2019-03-04T04:53:15.971Z,64.79
2019-03-04T04:55:42.741Z,65.02
2019-03-04T04:58:09.482Z,65.54
2019-03-04T05:00:36.192Z,65.66
2019-03-04T05:03:02.950Z,65.79
2019-03-04T05:05:29.662Z,64.92
2019-03-04T05:07:56.489Z,63.14
2019-03-04T05:10:23.230Z,64.33
2019-03-04T05:12:49.998Z,64.58
2019-03-04T05:15:16.714Z,64.84
2019-03-04T05:17:43.446Z,64.75
2019-03-04T05:20:13.322Z,65.07
2019-03-04T05:22:40.062Z,64.59
2019-03-04T05:25:07.006Z,65.40
2019-03-04T05:27:33.722Z,66.70
2019-03-04T05:30:00.464Z,66.73
2019-03-04T05:32:27.188Z,66.03
2019-03-04T05:34:53.906Z,64.56
2019-03-04T05:37:20.618Z,62.93
2019-03-04T05:39:47.361Z,62.24
2019-03-04T05:42:14.073Z,61.59
2019-03-04T05:44:40.815Z,60.41
2019-03-04T05:47:07.534Z,60.47
2019-03-04T05:49:34.271Z,60.31
2019-03-04T05:52:01.007Z,60.26
2019-03-04T05:54:27.749Z,60.15
2019-03-04T05:56:54.466Z,59.03
2019-03-04T05:59:21.333Z,59.59
2019-03-04T06:01:57.017Z,59.26
2019-03-04T06:04:23.748Z,59.45
2019-03-04T06:06:53.362Z,58.57
2019-03-04T06:09:20.102Z,58.13
2019-03-04T06:11:46.829Z,58.74
2019-03-04T06:14:13.558Z,60.26
2019-03-04T06:16:47.043Z,60.35
2019-03-04T06:19:07.122Z,59.54
2019-03-04T06:21:33.850Z,60.08
2019-03-04T06:24:00.581Z,59.29
2019-03-04T06:26:27.303Z,58.59
2019-03-04T06:28:54.082Z,57.93
2019-03-04T06:31:20.802Z,56.98
2019-03-04T06:33:47.538Z,55.20
2019-03-04T06:36:14.253Z,53.99
2019-03-04T06:38:40.970Z,53.86
2019-03-04T06:41:07.694Z,53.62
2019-03-04T06:43:34.542Z,53.84
2019-03-04T06:46:01.254Z,53.47
2019-03-04T06:48:28.007Z,53.40
2019-03-04T06:50:54.762Z,53.13
2019-03-04T06:53:28.618Z,53.58
2019-03-04T06:56:03.923Z,54.67
2019-03-04T06:58:31.205Z,53.47
2019-03-04T07:01:02.765Z,53.11
2019-03-04T07:03:32.302Z,53.11
2019-03-04T07:05:59.371Z,54.55
2019-03-04T07:09:07.763Z,54.87
2019-03-04T07:11:34.467Z,55.12
2019-03-04T07:14:01.237Z,55.85
2019-03-04T07:16:27.952Z,55.44
2019-03-04T07:18:54.842Z,56.67
2019-03-04T07:21:21.670Z,57.39
2019-03-04T07:23:48.397Z,57.97
2019-03-04T07:26:15.119Z,58.91
2019-03-04T07:28:41.893Z,59.58
2019-03-04T07:31:08.618Z,59.68
2019-03-04T07:33:35.346Z,58.86
2019-03-04T07:36:02.058Z,58.63
2019-03-04T07:38:50.119Z,58.72
2019-03-04T07:41:16.839Z,59.49
2019-03-04T07:43:43.666Z,58.85
2019-03-04T07:46:10.383Z,58.53
2019-03-04T07:48:37.093Z,58.51
2019-03-04T07:51:10.062Z,57.76
2019-03-04T07:53:46.102Z,57.50
2019-03-04T07:56:03.578Z,57.84
2019-03-04T07:58:30.422Z,57.46
2019-03-04T08:00:57.250Z,58.03
2019-03-04T08:03:24.022Z,56.89
2019-03-04T08:05:50.755Z,56.47
2019-03-04T08:08:17.465Z,56.24
2019-03-04T08:10:55.672Z,58.02
2019-03-04T08:13:29.595Z,57.66
2019-03-04T08:15:57.423Z,57.78
2019-03-04T08:18:24.161Z,57.79
2019-03-04T08:20:50.894Z,58.37
2019-03-04T08:23:17.627Z,57.96
2019-03-04T08:25:44.342Z,58.17
2019-03-04T08:28:12.739Z,58.13
2019-03-04T08:30:39.467Z,59.12
2019-03-04T08:33:06.191Z,58.26
2019-03-04T08:35:32.910Z,59.54
2019-03-04T08:37:59.641Z,59.34
2019-03-04T08:40:26.373Z,58.98
2019-03-04T08:42:53.112Z,59.00
2019-03-04T08:45:19.821Z,59.86
2019-03-04T08:47:46.598Z,59.72
2019-03-04T08:50:13.558Z,60.02
2019-03-04T08:52:40.314Z,59.46
2019-03-04T08:55:08.140Z,60.17
2019-03-04T08:57:35.454Z,59.59
2019-03-04T09:00:02.214Z,59.70
2019-03-04T09:02:28.994Z,60.43
2019-03-04T09:04:55.831Z,60.04
2019-03-04T09:07:22.550Z,60.91
2019-03-04T09:09:49.278Z,60.08
2019-03-04T09:12:16.043Z,60.37
2019-03-04T09:14:42.842Z,60.19
2019-03-04T09:17:10.697Z,60.45
2019-03-04T09:19:36.378Z,59.41
2019-03-04T09:22:03.093Z,58.82
2019-03-04T09:24:29.862Z,58.20
2019-03-04T09:26:56.582Z,58.55
2019-03-04T09:29:23.380Z,58.17
2019-03-04T09:31:50.099Z,58.34
2019-03-04T09:34:16.834Z,57.76
2019-03-04T09:36:43.559Z,57.77
2019-03-04T09:39:11.810Z,57.07
2019-03-04T09:41:38.527Z,56.79
2019-03-04T09:44:05.278Z,57.76
2019-03-04T09:46:31.996Z,56.58
2019-03-04T09:48:58.724Z,56.21
2019-03-04T09:51:25.439Z,56.30
2019-03-04T09:53:52.194Z,55.24
2019-03-04T09:56:18.914Z,54.40
2019-03-04T09:58:45.650Z,53.07
2019-03-04T10:01:17.990Z,54.16
2019-03-04T10:04:11.166Z,52.84
2019-03-04T10:06:46.158Z,52.67
2019-03-04T10:09:53.170Z,53.69
2019-03-04T10:12:31.107Z,53.22
2019-03-04T10:15:23.058Z,53.82
2019-03-04T10:18:01.670Z,52.85
2019-03-04T10:20:41.379Z,53.32
2019-03-04T10:23:31.744Z,53.54
2019-03-04T10:26:22.656Z,54.11
2019-03-04T10:28:58.633Z,54.18
2019-03-04T10:31:55.509Z,55.23
2019-03-04T10:34:34.103Z,54.88
2019-03-04T10:37:19.970Z,54.50
2019-03-04T10:40:25.941Z,54.23
2019-03-04T10:43:07.221Z,53.97
2019-03-04T10:45:44.005Z,55.35
2019-03-04T10:48:10.713Z,54.95
2019-03-04T10:50:37.453Z,55.36
2019-03-04T10:53:04.166Z,56.19
2019-03-04T10:55:41.212Z,56.55
2019-03-04T10:57:57.726Z,56.40
2019-03-04T11:00:24.457Z,56.36
2019-03-04T11:02:51.178Z,60.49
2019-03-04T11:05:17.913Z,59.76
2019-03-04T11:07:44.633Z,59.12
2019-03-04T11:10:11.478Z,59.52
2019-03-04T11:12:38.191Z,59.05
2019-03-04T11:15:11.590Z,57.71
2019-03-04T11:17:38.307Z,57.71
2019-03-04T11:20:05.730Z,57.19
2019-03-04T11:22:32.453Z,61.03
2019-03-04T11:24:59.182Z,63.37
2019-03-04T11:27:25.906Z,63.53
2019-03-04T11:29:52.638Z,62.44
2019-03-04T11:32:19.361Z,60.89
2019-03-04T11:34:46.106Z,64.11
2019-03-04T11:37:12.830Z,62.61
2019-03-04T11:39:45.647Z,61.54
2019-03-04T11:42:12.387Z,64.77
2019-03-04T11:44:39.122Z,67.02
2019-03-04T11:47:05.943Z,66.65
2019-03-04T11:49:32.654Z,66.95
2019-03-04T11:51:59.379Z,65.57
2019-03-04T11:54:26.093Z,62.17
2019-03-04T11:56:52.819Z,63.31
2019-03-04T11:59:19.537Z,59.23
2019-03-04T12:01:48.292Z,59.04
2019-03-04T12:04:14.999Z,58.54
2019-03-04T12:06:43.195Z,56.65
2019-03-04T12:09:13.478Z,56.94
2019-03-04T12:11:40.217Z,55.16
2019-03-04T12:14:07.002Z,54.56
2019-03-04T12:16:33.730Z,53.49
2019-03-04T12:19:00.517Z,53.78
2019-03-04T12:21:27.265Z,52.81
2019-03-04T12:23:54.005Z,52.98
2019-03-04T12:26:20.838Z,51.77
2019-03-04T12:28:47.518Z,50.03
2019-03-04T12:31:14.251Z,50.75
2019-03-04T12:33:40.966Z,50.74
2019-03-04T12:36:07.704Z,51.43
2019-03-04T12:38:34.439Z,50.26
2019-03-04T12:41:01.178Z,50.27
2019-03-04T12:43:27.901Z,50.40
2019-03-04T12:45:54.646Z,51.01
2019-03-04T12:48:21.358Z,49.45
2019-03-04T12:50:48.085Z,49.64
2019-03-04T12:53:14.810Z,48.62
2019-03-04T12:55:41.573Z,49.40
2019-03-04T12:58:08.289Z,49.90
2019-03-04T13:00:35.124Z,49.89
2019-03-04T13:03:01.928Z,49.99
2019-03-04T13:05:28.698Z,49.72
2019-03-04T13:07:55.431Z,51.84
2019-03-04T13:10:22.249Z,53.83
2019-03-04T13:12:48.983Z,56.77
2019-03-04T13:15:18.121Z,59.67
2019-03-04T13:17:44.850Z,59.70
2019-03-04T13:20:12.265Z,59.74
2019-03-04T13:22:39.002Z,58.74
2019-03-04T13:25:05.815Z,57.88
2019-03-04T13:27:32.550Z,56.81
2019-03-04T13:29:59.358Z,57.30
2019-03-04T13:32:26.092Z,57.75
2019-03-04T13:34:52.809Z,57.31
2019-03-04T13:37:19.541Z,57.07
2019-03-04T13:39:46.379Z,56.81
2019-03-04T13:42:13.059Z,56.45
2019-03-04T13:44:39.782Z,55.92
2019-03-04T13:47:06.564Z,56.07
2019-03-04T13:49:33.282Z,55.36
2019-03-04T13:52:00.022Z,54.17
2019-03-04T13:54:26.741Z,53.35
2019-03-04T13:56:53.478Z,54.92
2019-03-04T13:59:20.199Z,55.44
2019-03-04T14:01:46.950Z,55.73
2019-03-04T14:04:13.669Z,54.94
2019-03-04T14:06:40.406Z,56.17
2019-03-04T14:09:07.126Z,54.87
2019-03-04T14:11:33.873Z,56.19
2019-03-04T14:14:02.057Z,55.52
2019-03-04T14:16:27.354Z,56.74
2019-03-04T14:18:54.086Z,55.77
2019-03-04T14:21:20.830Z,54.91
2019-03-04T14:23:47.554Z,52.79
2019-03-04T14:26:14.286Z,52.03
2019-03-04T14:28:41.030Z,51.09
2019-03-04T14:31:07.790Z,52.35
2019-03-04T14:33:34.538Z,55.70
2019-03-04T14:36:01.294Z,68.03
2019-03-04T14:38:28.047Z,73.45
2019-03-04T14:40:54.765Z,74.88
2019-03-04T14:43:21.574Z,74.92
2019-03-04T14:45:48.318Z,74.86
2019-03-04T14:48:15.062Z,76.13
2019-03-04T14:50:41.790Z,76.73
2019-03-04T14:53:08.566Z,77.97
2019-03-04T14:55:35.311Z,76.72
2019-03-04T14:58:02.256Z,78.28
2019-03-04T15:00:30.951Z,77.98
2019-03-04T15:02:57.746Z,78.56
2019-03-04T15:05:24.493Z,75.26
2019-03-04T15:07:51.266Z,75.57
2019-03-04T15:10:18.006Z,76.59
2019-03-04T15:12:44.989Z,76.49
2019-03-04T15:15:12.616Z,76.45
2019-03-04T15:17:39.399Z,76.15
2019-03-04T15:20:09.568Z,75.94
2019-03-04T15:22:35.486Z,76.24
2019-03-04T15:25:01.664Z,77.04
2019-03-04T15:27:28.390Z,76.80
2019-03-04T15:29:55.171Z,77.99
2019-03-04T15:32:22.704Z,77.77
2019-03-04T15:34:48.929Z,77.10
2019-03-04T15:37:16.274Z,77.74
2019-03-04T15:39:42.459Z,78.27
2019-03-04T15:42:09.197Z,77.67
2019-03-04T15:44:35.982Z,78.44
2019-03-04T15:47:02.713Z,79.27
2019-03-04T15:49:29.462Z,79.90
2019-03-04T15:51:56.230Z,81.17
2019-03-04T15:54:23.073Z,81.95
2019-03-04T15:56:49.806Z,82.41
2019-03-04T15:59:16.583Z,82.76
2019-03-04T16:01:43.298Z,82.29
2019-03-04T16:04:10.131Z,82.95
2019-03-04T16:06:36.862Z,81.39
2019-03-04T16:09:06.878Z,79.86
2019-03-04T16:11:33.594Z,79.05
2019-03-04T16:14:00.354Z,77.64
2019-03-04T16:16:27.083Z,77.37
2019-03-04T16:18:53.851Z,76.54
2019-03-04T16:21:20.578Z,76.89
2019-03-04T16:23:47.433Z,76.28
2019-03-04T16:26:14.169Z,75.65
2019-03-04T16:28:41.450Z,75.57
2019-03-04T16:31:08.174Z,76.97
2019-03-04T16:33:35.006Z,77.48
2019-03-04T16:36:01.734Z,76.22
2019-03-04T16:38:28.474Z,75.36
2019-03-04T16:40:55.194Z,77.61
2019-03-04T16:43:21.936Z,76.86
2019-03-04T16:45:48.663Z,75.63
2019-03-04T16:48:15.398Z,74.93
2019-03-04T16:50:42.170Z,72.65
2019-03-04T16:53:09.960Z,73.53
2019-03-04T16:55:36.731Z,73.03
2019-03-04T16:58:03.542Z,73.03
2019-03-04T17:00:30.298Z,74.50
2019-03-04T17:02:57.022Z,73.60
2019-03-04T17:05:23.810Z,74.88
2019-03-04T17:07:51.023Z,73.67
2019-03-04T17:10:17.386Z,73.88
2019-03-04T17:12:44.114Z,72.95
2019-03-04T17:15:12.746Z,72.80
2019-03-04T17:17:39.486Z,72.83
2019-03-04T17:20:07.757Z,72.51
2019-03-04T17:22:34.515Z,72.97
2019-03-04T17:25:01.276Z,72.80
2019-03-04T17:27:27.999Z,72.58
2019-03-04T17:29:54.761Z,72.72
2019-03-04T17:32:21.506Z,72.33
2019-03-04T17:34:48.342Z,74.39
2019-03-04T17:37:15.067Z,73.75
2019-03-04T17:39:41.817Z,72.90
2019-03-04T17:42:08.542Z,72.70
2019-03-04T17:44:35.308Z,71.93
2019-03-04T17:47:02.052Z,72.19
2019-03-04T17:49:28.817Z,71.83
2019-03-04T17:51:55.548Z,72.71
2019-03-04T17:54:22.299Z,73.63
2019-03-04T17:56:49.114Z,73.80
2019-03-04T17:59:15.937Z,74.22
2019-03-04T18:01:42.669Z,75.02
2019-03-04T18:04:09.434Z,74.32
2019-03-04T18:06:36.236Z,75.08
2019-03-04T18:09:03.695Z,75.04
2019-03-04T18:11:30.421Z,74.81
2019-03-04T18:13:57.161Z,74.67
2019-03-04T18:16:23.898Z,74.30
2019-03-04T18:18:50.613Z,74.77
2019-03-04T18:21:17.350Z,74.81
2019-03-04T18:23:44.079Z,76.34
2019-03-04T18:26:16.703Z,76.83
2019-03-04T18:29:01.573Z,77.44
2019-03-04T18:31:40.491Z,77.85
2019-03-04T18:34:42.591Z,78.15
2019-03-04T18:37:34.246Z,79.93
2019-03-04T18:40:13.509Z,80.46
2019-03-04T18:42:52.865Z,81.73
2019-03-04T18:45:51.235Z,82.39
2019-03-04T18:48:34.862Z,82.60
2019-03-04T18:51:01.614Z,83.24
2019-03-04T18:53:28.337Z,82.90
2019-03-04T18:55:55.102Z,83.15
2019-03-04T18:58:21.846Z,83.13
2019-03-04T19:00:48.586Z,83.55
2019-03-04T19:03:15.333Z,83.66
2019-03-04T19:05:42.090Z,82.43
2019-03-04T19:08:09.116Z,83.81
2019-03-04T19:10:35.842Z,82.86
2019-03-04T19:13:02.563Z,82.38
2019-03-04T19:15:29.295Z,83.08
2019-03-04T19:17:56.027Z,83.54
2019-03-04T19:20:22.837Z,82.79
2019-03-04T19:22:49.573Z,82.64
2019-03-04T19:25:16.310Z,83.13
2019-03-04T19:27:43.045Z,83.48
2019-03-04T19:30:09.830Z,84.21
2019-03-04T19:32:36.709Z,83.21
2019-03-04T19:35:03.997Z,83.41
2019-03-04T19:37:30.726Z,83.74
2019-03-04T19:39:57.518Z,82.65
2019-03-04T19:42:25.032Z,83.44
2019-03-04T19:44:52.100Z,83.94
2019-03-04T19:47:18.831Z,83.87
2019-03-04T19:49:45.638Z,84.51
2019-03-04T19:52:12.382Z,84.06
2019-03-04T19:54:39.138Z,83.73
2019-03-04T19:57:05.890Z,83.98
2019-03-04T19:59:32.695Z,84.18
2019-03-04T20:01:59.454Z,84.77
2019-03-04T20:04:26.170Z,84.71
2019-03-04T20:06:52.906Z,84.23
2019-03-04T20:09:19.700Z,84.68
2019-03-04T20:11:46.441Z,85.03
2019-03-04T20:14:13.158Z,84.45
2019-03-04T20:16:39.905Z,84.15
2019-03-04T20:19:06.636Z,83.50
2019-03-04T20:21:33.380Z,82.85
2019-03-04T20:24:00.113Z,83.35
2019-03-04T20:26:26.870Z,82.60
2019-03-04T20:28:53.605Z,81.84
2019-03-04T20:31:20.614Z,81.90
2019-03-04T20:33:47.326Z,82.20
2019-03-04T20:36:14.065Z,83.32
2019-03-04T20:38:43.609Z,83.79
2019-03-04T20:41:10.566Z,83.27
2019-03-04T20:43:37.289Z,83.74
2019-03-04T20:46:04.253Z,85.65
2019-03-04T20:48:30.993Z,87.55
2019-03-04T20:50:57.742Z,88.91
2019-03-04T20:53:24.473Z,88.99
2019-03-04T20:55:51.203Z,88.64
2019-03-04T20:58:17.939Z,90.11
2019-03-04T21:00:44.682Z,90.85
2019-03-04T21:03:11.446Z,91.00
2019-03-04T21:05:38.184Z,92.36
2019-03-04T21:08:05.038Z,91.92
2019-03-04T21:10:31.766Z,91.86
2019-03-04T21:12:59.894Z,92.95
2019-03-04T21:15:26.606Z,93.15
2019-03-04T21:17:53.333Z,93.65
2019-03-04T21:20:20.074Z,93.65
2019-03-04T21:22:46.814Z,93.63
2019-03-04T21:25:40.844Z,93.53
2019-03-04T21:28:11.829Z,93.49
2019-03-04T21:31:04.973Z,93.93
2019-03-04T21:33:47.041Z,94.07
2019-03-04T21:36:29.811Z,93.62
2019-03-04T21:38:57.402Z,93.50
2019-03-04T21:41:32.421Z,92.92
2019-03-04T21:44:15.046Z,93.21
2019-03-04T21:46:53.365Z,91.94
2019-03-04T21:49:20.089Z,92.16
2019-03-04T21:52:19.462Z,91.67
2019-03-04T21:54:35.534Z,91.14
2019-03-04T21:57:24.847Z,91.05
2019-03-04T21:59:51.568Z,90.36
2019-03-04T22:02:24.432Z,90.29
2019-03-04T22:04:51.191Z,90.62
2019-03-04T22:07:17.928Z,89.60
2019-03-04T22:09:44.663Z,89.77
2019-03-04T22:12:12.107Z,89.30
2019-03-04T22:14:39.207Z,88.94
2019-03-04T22:17:05.922Z,88.76
2019-03-04T22:19:32.663Z,87.31
2019-03-04T22:21:59.381Z,86.12
2019-03-04T22:24:26.124Z,86.49
2019-03-04T22:26:52.856Z,86.55
2019-03-04T22:29:19.605Z,87.73
2019-03-04T22:31:46.323Z,87.10
2019-03-04T22:34:13.095Z,87.14
2019-03-04T22:36:39.788Z,87.33
2019-03-04T22:39:06.613Z,86.45
2019-03-04T22:41:33.320Z,86.65
2019-03-04T22:44:00.061Z,86.88
2019-03-04T22:46:26.782Z,86.82
2019-03-04T22:48:53.522Z,86.67
2019-03-04T22:51:20.250Z,86.09
2019-03-04T22:53:46.991Z,86.35
2019-03-04T22:56:13.731Z,86.58
2019-03-04T22:58:40.449Z,85.57
2019-03-04T23:01:26.808Z,86.02
2019-03-04T23:03:57.940Z,85.52
2019-03-04T23:06:25.950Z,86.24
2019-03-04T23:08:52.686Z,86.72
2019-03-04T23:11:21.875Z,85.71
2019-03-04T23:13:55.816Z,86.11
2019-03-04T23:16:25.137Z,86.47
2019-03-04T23:18:51.870Z,85.94
2019-03-04T23:21:18.584Z,85.64
2019-03-04T23:23:45.352Z,85.72
2019-03-04T23:26:12.069Z,85.37
2019-03-04T23:28:38.826Z,85.45
2019-03-04T23:31:05.550Z,84.16
2019-03-04T23:33:32.332Z,83.92
2019-03-04T23:35:59.050Z,84.46
2019-03-04T23:38:25.769Z,84.02
2019-03-04T23:40:52.498Z,84.13
2019-03-04T23:43:19.214Z,83.97
2019-03-04T23:45:45.958Z,83.75
2019-03-04T23:48:12.681Z,82.33
2019-03-04T23:50:39.422Z,82.87
2019-03-04T23:53:06.135Z,82.02
2019-03-04T23:55:32.883Z,82.92
2019-03-04T23:57:59.606Z,81.95
